| time (UTC) | temp F | wind direction | speed knots | gust knots | rain 1hr in | rain 24hr in | rain mn in | humidity % | barometer mb |
| 20260508155102 | 70 | 68 | 1.7 | 3.5 | 0.00 | 0.00 | 0.00 | 40 | 1007.1 |
| 20260508154003 | 69 | 158 | 1.7 | 1.7 | 0.00 | 0.00 | 0.00 | 35 | 1007.5 |
| 20260508153003 | 68 | 45 | 0.9 | 1.7 | 0.00 | 0.00 | 0.00 | 37 | 1007.5 |
| 20260508151902 | 67 | 45 | 1.7 | 2.6 | 0.00 | 0.00 | 0.00 | 40 | 1007.5 |
| 20260508150802 | 66 | 45 | 1.7 | 2.6 | 0.00 | 0.00 | 0.00 | 41 | 1007.5 |
| 20260508145702 | 65 | 45 | 2.6 | 2.6 | 0.00 | 0.00 | 0.00 | 40 | 1007.5 |
| 20260508144602 | 64 | 45 | 3.5 | 3.5 | 0.00 | 0.00 | 0.00 | 44 | 1007.8 |
| 20260508143402 | 63 | 68 | 1.7 | 2.6 | 0.00 | 0.00 | 0.00 | 46 | 1007.8 |
| 20260508142306 | 62 | 45 | 2.6 | 3.5 | 0.00 | 0.00 | 0.00 | 45 | 1007.8 |
| 20260508134902 | 57 | 158 | 0.9 | 0.9 | 0.00 | 0.00 | 0.00 | 61 | 1007.8 |
| 20260508133802 | 56 | 158 | 0.0 | 0.0 | 0.00 | 0.00 | 0.00 | 63 | 1008.1 |
| 20260508125403 | 54 | 45 | 0.0 | 0.0 | 0.00 | 0.00 | 0.00 | 60 | 1007.5 |
| 20260508124202 | 53 | 158 | 0.0 | 0.0 | 0.00 | 0.00 | 0.00 | 60 | 1007.8 |
| 20260508122002 | 52 | 158 | 0.0 | 0.0 | 0.00 | 0.00 | 0.00 | 59 | 1007.1 |
| 20260508120902 | 52 | 158 | 0.0 | 0.0 | 0.00 | 0.00 | 0.00 | 60 | 1007.5 |
| 20260508115702 | 52 | 45 | 0.0 | 0.9 | 0.00 | 0.00 | 0.00 | 59 | 1007.8 |
| 20260508114602 | 52 | 45 | 1.7 | 2.6 | 0.00 | 0.00 | 0.00 | 56 | 1007.8 |
| 20260508113502 | 51 | 45 | 1.7 | 2.6 | 0.00 | 0.00 | 0.00 | 55 | 1007.5 |
| 20260508112202 | 51 | 158 | 0.0 | 0.0 | 0.00 | 0.00 | 0.00 | 58 | 1007.5 |
| 20260508111102 | 51 | 158 | 0.0 | 0.0 | 0.00 | 0.00 | 0.00 | 55 | 1007.8 |
| 20260508104902 | 51 | 158 | 0.0 | 0.0 | 0.00 | 0.00 | 0.00 | 50 | 1007.8 |
| 20260508103702 | 51 | 158 | 0.0 | 0.0 | 0.00 | 0.00 | 0.00 | 50 | 1007.5 |
| 20260508102603 | 52 | 158 | 0.9 | 1.7 | 0.00 | 0.00 | 0.00 | 46 | 1007.8 |
| 20260508101502 | 53 | 158 | 0.9 | 1.7 | 0.00 | 0.00 | 0.00 | 45 | 1007.8 |
| 20260508100302 | 51 | 180 | 0.0 | 0.9 | 0.00 | 0.00 | 0.00 | 50 | 1007.8 |
| 20260508095202 | 50 | 158 | 0.0 | 0.9 | 0.00 | 0.00 | 0.00 | 55 | 1007.8 |
| 20260508094003 | 51 | 158 | 1.7 | 1.7 | 0.00 | 0.00 | 0.00 | 55 | 1008.1 |
| 20260508092903 | 52 | 158 | 0.0 | 0.9 | 0.00 | 0.00 | 0.00 | 50 | 1008.1 |
| 20260508091902 | 52 | 45 | 0.9 | 0.9 | 0.00 | 0.00 | 0.00 | 50 | 1007.8 |
| 20260508090803 | 53 | 113 | 0.0 | 2.6 | 0.00 | 0.00 | 0.00 | 51 | 1008.5 |
| 20260508085702 | 53 | 158 | 0.0 | 2.6 | 0.00 | 0.00 | 0.00 | 53 | 1008.5 |
| 20260508084602 | 53 | 158 | 0.0 | 2.6 | 0.00 | 0.00 | 0.00 | 51 | 1008.5 |
| 20260508083503 | 53 | 158 | 0.0 | 0.0 | 0.00 | 0.00 | 0.00 | 50 | 1008.1 |
| 20260508082306 | 54 | 158 | 1.7 | 1.7 | 0.00 | 0.00 | 0.00 | 49 | 1007.8 |
| 20260508081202 | 54 | 158 | 0.0 | 0.0 | 0.00 | 0.00 | 0.00 | 49 | 1007.8 |
| 20260508075003 | 54 | 68 | 1.7 | 1.7 | 0.00 | 0.00 | 0.00 | 49 | 1008.5 |
| 20260508073902 | 54 | 45 | 1.7 | 1.7 | 0.00 | 0.00 | 0.00 | 49 | 1008.5 |
| 20260508072802 | 54 | 180 | 0.0 | 1.7 | 0.00 | 0.00 | 0.00 | 48 | 1007.8 |
| 20260508071702 | 54 | 180 | 0.9 | 1.7 | 0.00 | 0.00 | 0.00 | 49 | 1008.5 |
| 20260508070701 | 54 | 180 | 0.9 | 1.7 | 0.00 | 0.00 | 0.00 | 48 | 1008.1 |
| 20260508064003 | 55 | 338 | 0.9 | 1.7 | 0.00 | 0.00 | 0.00 | 45 | 1008.5 |
| 20260508062902 | 54 | 180 | 0.0 | 0.0 | 0.00 | 0.00 | 0.00 | 45 | 1008.5 |
| 20260508061802 | 54 | 203 | 0.0 | 0.0 | 0.00 | 0.00 | 0.00 | 46 | 1008.5 |
| 20260508060702 | 54 | 203 | 0.9 | 1.7 | 0.00 | 0.00 | 0.00 | 46 | 1008.1 |
| 20260508055603 | 54 | 158 | 0.9 | 0.9 | 0.00 | 0.00 | 0.00 | 49 | 1008.5 |
| 20260508054503 | 54 | 158 | 0.9 | 1.7 | 0.00 | 0.00 | 0.00 | 48 | 1008.1 |
| 20260508053302 | 53 | 158 | 1.7 | 1.7 | 0.00 | 0.00 | 0.00 | 54 | 1008.1 |
| 20260508052202 | 54 | 158 | 1.7 | 1.7 | 0.00 | 0.00 | 0.00 | 50 | 1008.1 |
| 20260508051102 | 54 | 158 | 1.7 | 1.7 | 0.00 | 0.00 | 0.00 | 46 | 1008.1 |
| 20260508050004 | 54 | 158 | 0.0 | 0.9 | 0.00 | 0.00 | 0.00 | 45 | 1008.5 |
| 20260508045102 | 53 | 158 | 0.0 | 0.0 | 0.00 | 0.00 | 0.00 | 45 | 1008.5 |
| 20260508044002 | 53 | 158 | 0.0 | 0.0 | 0.00 | 0.00 | 0.00 | 46 | 1008.5 |
| 20260508042502 | 54 | 158 | 0.0 | 0.0 | 0.00 | 0.00 | 0.00 | 45 | 1008.5 |
| 20260508040004 | 54 | 158 | 0.0 | 0.0 | 0.00 | 0.00 | 0.00 | 46 | 1008.8 |
| 20260508033802 | 55 | 158 | 0.0 | 0.0 | 0.00 | 0.00 | 0.00 | 44 | 1008.5 |
| 20260508032201 | 55 | 158 | 0.0 | 0.0 | 0.00 | 0.00 | 0.00 | 41 | 1008.5 |
| 20260508030902 | 56 | 158 | 0.0 | 0.0 | 0.00 | 0.00 | 0.00 | 40 | 1008.5 |
| 20260508025502 | 56 | 158 | 0.0 | 0.0 | 0.00 | 0.00 | 0.00 | 40 | 1008.5 |
| 20260508024402 | 57 | 158 | 0.0 | 0.0 | 0.00 | 0.00 | 0.00 | 40 | 1008.5 |
| 20260508023302 | 57 | 158 | 0.0 | 0.0 | 0.00 | 0.00 | 0.00 | 39 | 1008.1 |
| 20260508022202 | 58 | 158 | 0.0 | 0.0 | 0.00 | 0.00 | 0.00 | 37 | 1008.1 |
| 20260508021003 | 59 | 158 | 0.0 | 0.0 | 0.00 | 0.00 | 0.00 | 37 | 1007.5 |
| 20260508015902 | 60 | 158 | 0.0 | 0.0 | 0.00 | 0.00 | 0.00 | 35 | 1007.5 |
| 20260508014802 | 61 | 158 | 0.0 | 0.0 | 0.00 | 0.00 | 0.00 | 35 | 1007.5 |
| 20260508013603 | 62 | 158 | 0.0 | 0.0 | 0.00 | 0.00 | 0.00 | 32 | 1007.5 |
| 20260508012602 | 63 | 158 | 0.0 | 0.9 | 0.00 | 0.00 | 0.00 | 31 | 1007.5 |
| 20260508011402 | 64 | 158 | 0.9 | 1.7 | 0.00 | 0.00 | 0.00 | 30 | 1007.5 |
| 20260508010302 | 66 | 158 | 0.0 | 1.7 | 0.00 | 0.00 | 0.00 | 30 | 1007.1 |
| 20260508004003 | 68 | 113 | 3.5 | 3.5 | 0.00 | 0.00 | 0.00 | 27 | 1007.1 |
| 20260508002902 | 68 | 158 | 1.7 | 2.6 | 0.00 | 0.00 | 0.00 | 25 | 1006.8 |
| 20260508001803 | 70 | 180 | 2.6 | 2.6 | 0.00 | 0.00 | 0.00 | 25 | 1006.8 |
| 20260508000703 | 70 | 203 | 1.7 | 5.2 | 0.00 | 0.00 | 0.00 | 27 | 1006.8 |
| 20260507235602 | 72 | 203 | 2.6 | 2.6 | 0.00 | 0.00 | 0.00 | 25 | 1006.8 |
| 20260507234503 | 74 | 158 | 3.5 | 3.5 | 0.00 | 0.00 | 0.00 | 25 | 1006.8 |
| 20260507233402 | 73 | 23 | 4.3 | 4.3 | 0.00 | 0.00 | 0.00 | 27 | 1007.1 |
| 20260507232202 | 76 | 203 | 2.6 | 4.3 | 0.00 | 0.00 | 0.00 | 25 | 1007.1 |
| 20260507231102 | 75 | 180 | 2.6 | 3.5 | 0.00 | 0.00 | 0.00 | 25 | 1006.8 |
| 20260507230004 | 75 | 180 | 1.7 | 3.5 | 0.00 | 0.00 | 0.00 | 27 | 1007.1 |
| 20260507225003 | 74 | 158 | 7.0 | 7.0 | 0.00 | 0.00 | 0.00 | 27 | 1006.8 |
| 20260507223902 | 75 | 23 | 4.3 | 4.3 | 0.00 | 0.00 | 0.00 | 25 | 1006.8 |
| 20260507222801 | 75 | 270 | 0.9 | 7.0 | 0.00 | 0.00 | 0.00 | 27 | 1006.8 |
| 20260507221602 | 76 | 180 | 1.7 | 6.1 | 0.00 | 0.00 | 0.00 | 25 | 1006.8 |
| 20260507220502 | 75 | 248 | 1.7 | 3.5 | 0.00 | 0.00 | 0.00 | 25 | 1006.8 |
| 20260507215402 | 75 | 180 | 4.3 | 4.3 | 0.00 | 0.00 | 0.00 | 25 | 1006.8 |
| 20260507214203 | 75 | 315 | 3.5 | 4.3 | 0.00 | 0.00 | 0.00 | 27 | 1007.1 |
| 20260507210803 | 72 | 45 | 3.5 | 4.3 | 0.00 | 0.00 | 0.00 | 27 | 1007.1 |
| 20260507205703 | 75 | 225 | 4.3 | 11.3 | 0.00 | 0.00 | 0.00 | 27 | 1007.1 |
| 20260507204602 | 74 | 203 | 3.5 | 5.2 | 0.00 | 0.00 | 0.00 | 29 | 1007.1 |
| 20260507203402 | 74 | 180 | 2.6 | 4.3 | 0.00 | 0.00 | 0.00 | 29 | 1007.1 |
| 20260507201202 | 73 | 90 | 7.0 | 7.0 | 0.00 | 0.00 | 0.00 | 32 | 1007.5 |
| 20260507200201 | 73 | 225 | 3.5 | 5.2 | 0.00 | 0.00 | 0.00 | 30 | 1007.5 |
| 20260507195103 | 73 | 23 | 3.5 | 4.3 | 0.00 | 0.00 | 0.00 | 30 | 1007.5 |
| 20260507194002 | 73 | 45 | 5.2 | 5.2 | 0.00 | 0.00 | 0.00 | 32 | 1007.5 |
| 20260507192902 | 72 | 45 | 2.6 | 5.2 | 0.00 | 0.00 | 0.00 | 35 | 1007.5 |
| 20260507191802 | 72 | 23 | 1.7 | 4.3 | 0.00 | 0.00 | 0.00 | 35 | 1007.8 |
| 20260507190603 | 72 | 338 | 2.6 | 7.0 | 0.00 | 0.00 | 0.00 | 37 | 1007.5 |
| 20260507185503 | 71 | 45 | 3.5 | 3.5 | 0.00 | 0.00 | 0.00 | 37 | 1007.5 |
| 20260507184303 | 70 | 23 | 6.1 | 6.1 | 0.00 | 0.00 | 0.00 | 37 | 1007.8 |
| 20260507183102 | 70 | 23 | 3.5 | 4.3 | 0.00 | 0.00 | 0.00 | 37 | 1007.8 |
| 20260507182003 | 70 | 23 | 3.5 | 4.3 | 0.00 | 0.00 | 0.00 | 37 | 1008.1 |
| 20260507181002 | 69 | 23 | 4.3 | 4.3 | 0.00 | 0.00 | 0.00 | 39 | 1008.1 |
| 20260507175902 | 69 | 45 | 5.2 | 8.7 | 0.00 | 0.00 | 0.00 | 37 | 1008.1 |
| 20260507174802 | 67 | 315 | 2.6 | 6.1 | 0.00 | 0.00 | 0.00 | 40 | 1008.5 |
| 20260507173703 | 67 | 45 | 3.5 | 6.1 | 0.00 | 0.00 | 0.00 | 40 | 1008.5 |
| 20260507172502 | 67 | 68 | 4.3 | 5.2 | 0.00 | 0.00 | 0.00 | 43 | 1008.5 |
| 20260507171402 | 66 | 0 | 3.5 | 7.0 | 0.00 | 0.00 | 0.00 | 40 | 1008.8 |
| 20260507170302 | 65 | 248 | 0.9 | 3.5 | 0.00 | 0.00 | 0.00 | 40 | 1008.8 |
| 20260507165102 | 65 | 68 | 2.6 | 2.6 | 0.00 | 0.00 | 0.00 | 45 | 1009.1 |
| 20260507164002 | 64 | 45 | 2.6 | 5.2 | 0.00 | 0.00 | 0.00 | 45 | 1009.1 |
| 20260507162902 | 63 | 203 | 3.5 | 6.1 | 0.00 | 0.00 | 0.00 | 45 | 1009.1 |
| 20260507161802 | 63 | 68 | 1.7 | 7.0 | 0.00 | 0.00 | 0.00 | 46 | 1009.1 |
| 20260507160702 | 62 | 68 | 3.5 | 5.2 | 0.00 | 0.00 | 0.00 | 50 | 1009.5 |